createdAt,value
2023-05-21T00:00:52.712Z,100.00
2023-05-21T00:04:54.239Z,100.00
2023-05-21T00:08:55.813Z,100.00
2023-05-21T00:12:57.371Z,100.00
2023-05-21T00:17:00.511Z,100.00
2023-05-21T00:21:02.130Z,100.00
2023-05-21T00:25:04.232Z,100.00
2023-05-21T00:29:05.953Z,100.00
2023-05-21T00:33:09.002Z,100.00
2023-05-21T00:37:10.575Z,100.00
2023-05-21T00:41:12.492Z,100.00
2023-05-21T00:45:14.390Z,100.00
2023-05-21T00:49:17.325Z,100.00
2023-05-21T00:53:19.276Z,100.00
2023-05-21T00:57:22.838Z,100.00
2023-05-21T01:01:24.454Z,100.00
2023-05-21T01:05:28.000Z,100.00
2023-05-21T01:09:29.554Z,100.00
2023-05-21T01:13:31.459Z,100.00
2023-05-21T01:17:33.291Z,100.00
2023-05-21T01:21:41.260Z,100.00
2023-05-21T01:25:44.359Z,100.00
2023-05-21T01:29:45.931Z,100.00
2023-05-21T01:33:49.797Z,100.00
2023-05-21T01:37:55.403Z,100.00
2023-05-21T01:41:58.954Z,100.00
2023-05-21T01:46:02.169Z,100.00
2023-05-21T01:50:05.252Z,100.00
2023-05-21T01:54:06.798Z,100.00
2023-05-21T01:58:09.664Z,100.00
2023-05-21T02:02:11.393Z,100.00
2023-05-21T02:06:13.125Z,100.00
2023-05-21T02:10:14.643Z,100.00
2023-05-21T02:14:17.572Z,100.00
2023-05-21T02:18:19.087Z,100.00
2023-05-21T02:22:20.602Z,100.00
2023-05-21T02:26:22.161Z,100.00
2023-05-21T02:30:25.093Z,100.00
2023-05-21T02:34:26.729Z,100.00
2023-05-21T02:38:28.392Z,100.00
2023-05-21T02:42:30.252Z,100.00
2023-05-21T02:46:33.265Z,100.00
2023-05-21T02:50:34.829Z,100.00
2023-05-21T02:54:36.378Z,100.00
2023-05-21T02:58:37.995Z,100.00
2023-05-21T03:02:41.028Z,100.00
2023-05-21T03:06:42.836Z,100.00
2023-05-21T03:10:44.362Z,100.00
2023-05-21T03:14:45.889Z,100.00
2023-05-21T03:18:48.767Z,100.00
2023-05-21T03:22:50.302Z,100.00
2023-05-21T03:26:51.820Z,100.00
2023-05-21T03:30:53.676Z,100.00
2023-05-21T03:34:56.572Z,100.00
2023-05-21T03:38:58.109Z,100.00
2023-05-21T03:42:59.618Z,100.00
2023-05-21T03:47:01.130Z,100.00
2023-05-21T03:51:04.246Z,100.00
2023-05-21T03:55:06.525Z,100.00
2023-05-21T03:59:08.052Z,100.00
2023-05-21T04:03:09.676Z,100.00
2023-05-21T04:07:12.874Z,100.00
2023-05-21T04:11:14.420Z,100.00
2023-05-21T04:15:15.962Z,100.00
2023-05-21T04:19:17.568Z,100.00
2023-05-21T04:23:20.545Z,100.00
2023-05-21T04:27:22.192Z,100.00
2023-05-21T04:31:23.781Z,100.00
2023-05-21T04:35:25.340Z,100.00
2023-05-21T04:39:28.269Z,100.00
2023-05-21T04:43:30.027Z,100.00
2023-05-21T04:47:31.563Z,100.00
2023-05-21T04:51:33.115Z,100.00
2023-05-21T04:55:36.199Z,100.00
2023-05-21T04:59:37.847Z,100.00
2023-05-21T05:03:39.433Z,100.00
2023-05-21T05:07:40.968Z,100.00
2023-05-21T05:11:44.326Z,100.00
2023-05-21T05:15:47.541Z,100.00
2023-05-21T05:19:51.037Z,100.00
2023-05-21T05:23:52.750Z,100.00
2023-05-21T05:27:55.663Z,100.00
2023-05-21T05:31:57.225Z,100.00
2023-05-21T05:35:58.773Z,100.00
2023-05-21T05:40:00.383Z,97.41
2023-05-21T05:44:03.571Z,96.46
2023-05-21T05:48:05.689Z,93.81
2023-05-21T05:52:07.332Z,92.76
2023-05-21T05:56:08.857Z,92.19
2023-05-21T06:00:13.136Z,90.44
2023-05-21T06:04:14.712Z,89.75
2023-05-21T06:08:16.240Z,88.49
2023-05-21T06:12:17.789Z,86.84
2023-05-21T06:16:20.716Z,86.20
2023-05-21T06:20:22.289Z,85.44
2023-05-21T06:24:23.815Z,84.78
2023-05-21T06:28:25.364Z,84.31
2023-05-21T06:32:28.318Z,85.07
2023-05-21T06:36:30.136Z,84.24
2023-05-21T06:40:31.868Z,85.17
2023-05-21T06:44:33.377Z,85.16
2023-05-21T06:48:36.255Z,83.97
2023-05-21T06:52:37.812Z,82.93
2023-05-21T06:56:40.068Z,83.30
2023-05-21T07:00:41.605Z,84.34
2023-05-21T07:04:44.492Z,85.33
2023-05-21T07:08:46.158Z,85.35
2023-05-21T07:12:47.688Z,85.51
2023-05-21T07:16:49.334Z,86.79
2023-05-21T07:20:52.314Z,88.92
2023-05-21T07:24:53.866Z,86.67
2023-05-21T07:28:55.378Z,86.76
2023-05-21T07:32:56.997Z,86.76
2023-05-21T07:36:59.952Z,87.71
2023-05-21T07:41:01.520Z,85.34
2023-05-21T07:45:03.277Z,87.38
2023-05-21T07:49:04.814Z,88.69
2023-05-21T07:53:07.795Z,89.61
2023-05-21T07:57:09.414Z,89.80
2023-05-21T08:01:11.221Z,86.95
2023-05-21T08:05:12.877Z,84.80
2023-05-21T08:09:15.827Z,82.78
2023-05-21T08:13:17.499Z,87.52
2023-05-21T08:17:19.037Z,87.69
2023-05-21T08:21:20.616Z,88.73
2023-05-21T08:25:23.785Z,87.30
2023-05-21T08:29:25.350Z,84.78
2023-05-21T08:33:27.473Z,81.43
2023-05-21T08:37:29.112Z,81.04
2023-05-21T08:41:35.203Z,77.33
2023-05-21T08:45:39.226Z,78.28
2023-05-21T08:49:41.166Z,79.67
2023-05-21T08:53:43.157Z,74.70
2023-05-21T08:57:46.050Z,74.83
2023-05-21T09:01:48.475Z,75.37
2023-05-21T09:05:50.474Z,72.64
2023-05-21T09:09:55.562Z,72.08
2023-05-21T09:14:01.176Z,74.17
2023-05-21T09:18:02.802Z,72.55
2023-05-21T09:22:04.805Z,71.81
2023-05-21T09:26:12.689Z,70.04
2023-05-21T09:30:17.297Z,69.49
2023-05-21T09:34:19.083Z,70.39
2023-05-21T09:38:22.382Z,70.52
2023-05-21T09:42:24.017Z,68.98
2023-05-21T09:46:27.487Z,68.35
2023-05-21T09:50:29.058Z,68.19
2023-05-21T09:54:32.144Z,66.73
2023-05-21T09:58:34.401Z,66.68
2023-05-21T10:02:37.923Z,68.40
2023-05-21T10:06:42.979Z,71.00
2023-05-21T10:10:44.778Z,66.09
2023-05-21T10:14:51.214Z,62.78
2023-05-21T10:18:54.961Z,57.87
2023-05-21T10:22:58.097Z,57.51
2023-05-21T10:27:01.485Z,61.51
2023-05-21T10:31:04.133Z,60.29
2023-05-21T10:35:09.159Z,62.11
2023-05-21T10:39:12.536Z,65.00
2023-05-21T10:43:32.480Z,66.72
2023-05-21T10:47:54.308Z,67.83
2023-05-21T10:52:07.362Z,70.85
2023-05-21T10:56:18.133Z,67.95
2023-05-21T11:00:20.610Z,66.72
2023-05-21T11:04:26.300Z,67.04
2023-05-21T11:08:30.417Z,67.50
2023-05-21T11:12:34.513Z,69.21
2023-05-21T11:16:36.135Z,67.56
2023-05-21T11:20:37.803Z,62.46
2023-05-21T11:24:41.886Z,60.10
2023-05-21T11:28:43.462Z,53.78
2023-05-21T11:33:18.406Z,56.72
2023-05-21T11:37:33.839Z,59.21
2023-05-21T11:41:57.186Z,60.60
2023-05-21T11:45:59.296Z,58.16
2023-05-21T11:50:02.897Z,52.97
2023-05-21T11:54:04.572Z,52.13
2023-05-21T11:58:07.686Z,46.83
2023-05-21T12:02:09.233Z,48.97
2023-05-21T12:06:10.901Z,54.68
2023-05-21T12:10:13.322Z,52.38
2023-05-21T12:14:16.413Z,51.77
2023-05-21T12:18:17.989Z,49.01
2023-05-21T12:22:19.977Z,46.81
2023-05-21T12:26:21.784Z,46.77
2023-05-21T12:30:25.348Z,48.19
2023-05-21T12:34:41.143Z,47.59
2023-05-21T12:38:43.022Z,48.11
2023-05-21T12:42:44.804Z,48.42
2023-05-21T12:46:47.904Z,49.00
2023-05-21T12:50:51.663Z,43.85
2023-05-21T12:54:55.010Z,43.71
2023-05-21T12:58:56.539Z,45.04
2023-05-21T13:02:59.833Z,45.19
2023-05-21T13:07:04.262Z,44.87
2023-05-21T13:11:06.493Z,44.20
2023-05-21T13:15:08.650Z,45.73
2023-05-21T13:19:11.613Z,47.17
2023-05-21T13:23:14.243Z,51.21
2023-05-21T13:27:15.808Z,52.71
2023-05-21T13:31:17.364Z,53.48
2023-05-21T13:35:20.496Z,47.53
2023-05-21T13:39:22.032Z,46.89
2023-05-21T13:43:23.684Z,47.43
2023-05-21T13:47:25.412Z,46.63
2023-05-21T13:51:38.608Z,46.79
2023-05-21T13:55:40.840Z,48.13
2023-05-21T13:59:42.523Z,43.47
2023-05-21T14:03:44.101Z,42.26
2023-05-21T14:07:47.315Z,41.57
2023-05-21T14:11:48.939Z,39.21
2023-05-21T14:15:50.484Z,43.21
2023-05-21T14:19:52.033Z,44.63
2023-05-21T14:23:54.973Z,46.21
2023-05-21T14:27:56.915Z,45.80
2023-05-21T14:31:58.554Z,45.09
2023-05-21T14:36:00.466Z,45.22
2023-05-21T14:40:03.917Z,45.36
2023-05-21T14:44:05.624Z,43.67
2023-05-21T14:48:07.242Z,45.71
2023-05-21T14:52:08.800Z,45.87
2023-05-21T14:56:11.731Z,47.56
2023-05-21T15:00:13.933Z,49.68
2023-05-21T15:04:15.585Z,49.15
2023-05-21T15:08:17.187Z,49.63
2023-05-21T15:12:20.077Z,51.41
2023-05-21T15:16:21.786Z,52.06
2023-05-21T15:20:23.399Z,51.81
2023-05-21T15:24:24.938Z,49.63
2023-05-21T15:28:27.818Z,52.79
2023-05-21T15:32:30.443Z,52.21
2023-05-21T15:36:32.006Z,54.82
2023-05-21T15:40:33.564Z,54.94
2023-05-21T15:44:36.445Z,54.77
2023-05-21T15:48:37.997Z,53.34
2023-05-21T15:52:41.687Z,52.15
2023-05-21T15:56:44.550Z,51.54
2023-05-21T16:00:47.578Z,52.73
2023-05-21T16:04:49.333Z,52.28
2023-05-21T16:08:50.911Z,50.09
2023-05-21T16:12:52.474Z,49.73
2023-05-21T16:16:55.575Z,50.63
2023-05-21T16:20:57.330Z,50.47
2023-05-21T16:24:58.938Z,50.93
2023-05-21T16:29:02.278Z,49.98
2023-05-21T16:33:05.612Z,51.04
2023-05-21T16:37:07.156Z,51.41
2023-05-21T16:41:08.741Z,50.51
2023-05-21T16:45:11.020Z,52.14
2023-05-21T16:49:13.892Z,52.97
2023-05-21T16:53:15.455Z,53.02
2023-05-21T16:57:16.995Z,53.28
2023-05-21T17:01:18.618Z,54.70
2023-05-21T17:05:22.163Z,55.33
2023-05-21T17:09:23.711Z,50.99
2023-05-21T17:13:25.235Z,51.83
2023-05-21T17:17:26.975Z,51.53
2023-05-21T17:21:30.355Z,53.28
2023-05-21T17:25:34.323Z,52.75
2023-05-21T17:29:36.216Z,54.78
2023-05-21T17:33:38.115Z,54.51
2023-05-21T17:37:40.987Z,55.38
2023-05-21T17:41:42.594Z,56.92
2023-05-21T17:45:44.180Z,59.06
2023-05-21T17:49:45.752Z,60.15
2023-05-21T17:53:48.674Z,60.48
2023-05-21T17:57:50.210Z,61.98
2023-05-21T18:01:51.766Z,63.12
2023-05-21T18:05:53.334Z,63.67
2023-05-21T18:09:56.345Z,64.92
2023-05-21T18:13:57.906Z,65.04
2023-05-21T18:17:59.553Z,66.59
2023-05-21T18:22:01.080Z,67.35
2023-05-21T18:26:04.341Z,66.89
2023-05-21T18:30:07.144Z,67.38
2023-05-21T18:34:08.749Z,67.81
2023-05-21T18:38:10.445Z,66.71
2023-05-21T18:42:14.457Z,65.46
2023-05-21T18:46:16.156Z,66.92
2023-05-21T18:50:17.895Z,69.53
2023-05-21T18:54:19.421Z,70.93
2023-05-21T18:58:22.311Z,71.29
2023-05-21T19:02:23.903Z,73.17
2023-05-21T19:06:25.515Z,73.33
2023-05-21T19:10:27.078Z,74.49
2023-05-21T19:14:30.459Z,75.23
2023-05-21T19:18:31.982Z,76.85
2023-05-21T19:22:34.258Z,77.24
2023-05-21T19:26:35.864Z,77.13
2023-05-21T19:30:39.049Z,78.52
2023-05-21T19:34:40.817Z,77.13
2023-05-21T19:38:46.160Z,79.19
2023-05-21T19:42:47.698Z,77.76
2023-05-21T19:46:50.578Z,77.69
2023-05-21T19:50:52.438Z,77.69
2023-05-21T19:54:53.966Z,78.39
2023-05-21T19:58:55.519Z,78.30
2023-05-21T20:02:58.425Z,79.31
2023-05-21T20:07:00.111Z,79.65
2023-05-21T20:11:01.734Z,79.70
2023-05-21T20:15:03.795Z,79.72
2023-05-21T20:19:06.696Z,78.82
2023-05-21T20:23:08.694Z,81.08
2023-05-21T20:27:10.314Z,82.19
2023-05-21T20:31:12.158Z,83.97
2023-05-21T20:35:15.216Z,85.71
2023-05-21T20:39:16.749Z,86.73
2023-05-21T20:43:18.497Z,87.70
2023-05-21T20:47:20.155Z,88.59
2023-05-21T20:51:23.037Z,89.74
2023-05-21T20:55:24.582Z,91.18
2023-05-21T20:59:26.391Z,91.50
2023-05-21T21:03:27.969Z,92.59
2023-05-21T21:07:30.917Z,92.67
2023-05-21T21:11:32.467Z,93.09
2023-05-21T21:15:34.026Z,93.22
2023-05-21T21:19:35.550Z,93.71
2023-05-21T21:23:38.440Z,94.12
2023-05-21T21:27:40.298Z,94.50
2023-05-21T21:31:41.906Z,94.27
2023-05-21T21:35:43.482Z,95.33
2023-05-21T21:39:46.355Z,95.59
2023-05-21T21:43:47.961Z,95.34
2023-05-21T21:47:49.631Z,95.31
2023-05-21T21:51:51.265Z,96.46
2023-05-21T21:55:54.178Z,97.75
2023-05-21T21:59:55.693Z,97.46
2023-05-21T22:03:57.223Z,99.60
2023-05-21T22:07:58.741Z,100.00
2023-05-21T22:12:01.633Z,100.00
2023-05-21T22:16:03.265Z,100.00
2023-05-21T22:20:05.871Z,100.00
2023-05-21T22:24:12.718Z,100.00
2023-05-21T22:28:20.639Z,100.00
2023-05-21T22:32:22.163Z,100.00
2023-05-21T22:36:23.704Z,100.00
2023-05-21T22:40:25.252Z,100.00
2023-05-21T22:44:28.221Z,100.00
2023-05-21T22:48:29.735Z,100.00
2023-05-21T22:52:31.355Z,100.00
2023-05-21T22:56:33.395Z,100.00
2023-05-21T23:00:36.719Z,100.00
2023-05-21T23:04:43.719Z,100.00
2023-05-21T23:08:45.701Z,100.00
2023-05-21T23:12:47.239Z,100.00
2023-05-21T23:16:50.161Z,100.00
2023-05-21T23:20:51.792Z,100.00
2023-05-21T23:24:53.374Z,100.00
2023-05-21T23:28:54.931Z,100.00
2023-05-21T23:32:57.872Z,100.00
2023-05-21T23:37:00.495Z,100.00
2023-05-21T23:41:02.289Z,100.00
2023-05-21T23:45:04.279Z,100.00
2023-05-21T23:49:07.213Z,100.00
2023-05-21T23:53:08.737Z,100.00
2023-05-21T23:57:10.306Z,100.00
